sensor_id;sensor_type;location;lat;lon;timestamp;P1;durP1;ratioP1;P2;durP2;ratioP2
28007;SDS011;15333;50.010;20.020;2023-03-20T00:00:40;71.80;;;37.17;;
28007;SDS011;15333;50.010;20.020;2023-03-20T00:03:54;68.78;;;36.10;;
28007;SDS011;15333;50.010;20.020;2023-03-20T00:06:57;70.07;;;35.53;;
28007;SDS011;15333;50.010;20.020;2023-03-20T00:09:57;72.35;;;36.45;;
28007;SDS011;15333;50.010;20.020;2023-03-20T00:12:58;69.68;;;37.10;;
28007;SDS011;15333;50.010;20.020;2023-03-20T00:16:00;73.10;;;37.80;;
28007;SDS011;15333;50.010;20.020;2023-03-20T00:19:02;73.47;;;36.53;;
28007;SDS011;15333;50.010;20.020;2023-03-20T00:22:04;74.32;;;38.42;;
28007;SDS011;15333;50.010;20.020;2023-03-20T00:25:05;76.10;;;38.22;;
28007;SDS011;15333;50.010;20.020;2023-03-20T00:28:21;74.82;;;35.72;;
28007;SDS011;15333;50.010;20.020;2023-03-20T00:31:34;70.53;;;35.88;;
28007;SDS011;15333;50.010;20.020;2023-03-20T00:34:39;74.95;;;37.38;;
28007;SDS011;15333;50.010;20.020;2023-03-20T00:37:40;71.07;;;37.65;;
28007;SDS011;15333;50.010;20.020;2023-03-20T00:40:41;66.60;;;34.95;;
28007;SDS011;15333;50.010;20.020;2023-03-20T00:43:45;64.38;;;33.83;;
28007;SDS011;15333;50.010;20.020;2023-03-20T00:46:52;68.05;;;34.60;;
28007;SDS011;15333;50.010;20.020;2023-03-20T00:49:58;61.37;;;34.07;;
28007;SDS011;15333;50.010;20.020;2023-03-20T00:52:59;66.20;;;32.97;;
28007;SDS011;15333;50.010;20.020;2023-03-20T00:56:01;68.38;;;33.60;;
28007;SDS011;15333;50.010;20.020;2023-03-20T00:59:02;59.45;;;33.28;;
28007;SDS011;15333;50.010;20.020;2023-03-20T01:02:04;63.97;;;33.00;;
28007;SDS011;15333;50.010;20.020;2023-03-20T01:05:05;60.92;;;33.53;;
28007;SDS011;15333;50.010;20.020;2023-03-20T01:08:14;62.10;;;32.05;;
28007;SDS011;15333;50.010;20.020;2023-03-20T01:11:18;61.40;;;32.10;;
28007;SDS011;15333;50.010;20.020;2023-03-20T01:14:22;60.35;;;32.30;;
28007;SDS011;15333;50.010;20.020;2023-03-20T01:17:24;60.70;;;31.27;;
28007;SDS011;15333;50.010;20.020;2023-03-20T01:20:28;60.30;;;31.88;;
28007;SDS011;15333;50.010;20.020;2023-03-20T01:23:30;63.95;;;30.98;;
28007;SDS011;15333;50.010;20.020;2023-03-20T01:29:36;56.92;;;29.48;;
28007;SDS011;15333;50.010;20.020;2023-03-20T01:32:37;62.95;;;30.77;;
28007;SDS011;15333;50.010;20.020;2023-03-20T01:35:38;57.95;;;29.98;;
28007;SDS011;15333;50.010;20.020;2023-03-20T01:38:40;56.90;;;29.75;;
28007;SDS011;15333;50.010;20.020;2023-03-20T01:41:41;55.95;;;29.70;;
28007;SDS011;15333;50.010;20.020;2023-03-20T01:44:42;52.80;;;28.30;;
28007;SDS011;15333;50.010;20.020;2023-03-20T01:47:43;59.97;;;29.92;;
28007;SDS011;15333;50.010;20.020;2023-03-20T01:50:45;52.92;;;25.65;;
28007;SDS011;15333;50.010;20.020;2023-03-20T01:53:50;54.13;;;26.08;;
28007;SDS011;15333;50.010;20.020;2023-03-20T01:56:56;46.88;;;23.85;;
28007;SDS011;15333;50.010;20.020;2023-03-20T02:00:14;38.83;;;21.55;;
28007;SDS011;15333;50.010;20.020;2023-03-20T02:03:16;37.33;;;20.52;;
28007;SDS011;15333;50.010;20.020;2023-03-20T02:06:38;48.38;;;24.60;;
28007;SDS011;15333;50.010;20.020;2023-03-20T02:09:51;34.50;;;19.83;;
28007;SDS011;15333;50.010;20.020;2023-03-20T02:13:00;42.33;;;22.35;;
28007;SDS011;15333;50.010;20.020;2023-03-20T02:16:10;49.88;;;25.30;;
28007;SDS011;15333;50.010;20.020;2023-03-20T02:19:30;63.92;;;32.17;;
28007;SDS011;15333;50.010;20.020;2023-03-20T02:36:31;51.88;;;28.88;;
28007;SDS011;15333;50.010;20.020;2023-03-20T02:43:14;57.67;;;29.67;;
28007;SDS011;15333;50.010;20.020;2023-03-20T02:56:28;42.13;;;22.50;;
28007;SDS011;15333;50.010;20.020;2023-03-20T03:00:13;53.15;;;28.45;;
28007;SDS011;15333;50.010;20.020;2023-03-20T03:03:24;59.00;;;29.60;;
28007;SDS011;15333;50.010;20.020;2023-03-20T03:06:32;53.88;;;28.42;;
28007;SDS011;15333;50.010;20.020;2023-03-20T03:09:59;46.20;;;23.48;;
28007;SDS011;15333;50.010;20.020;2023-03-20T03:13:04;43.72;;;22.10;;
28007;SDS011;15333;50.010;20.020;2023-03-20T03:16:16;44.58;;;22.10;;
28007;SDS011;15333;50.010;20.020;2023-03-20T03:19:23;42.65;;;22.15;;
28007;SDS011;15333;50.010;20.020;2023-03-20T03:22:27;50.13;;;25.48;;
28007;SDS011;15333;50.010;20.020;2023-03-20T03:25:32;37.03;;;19.15;;
28007;SDS011;15333;50.010;20.020;2023-03-20T03:28:49;32.08;;;18.10;;
28007;SDS011;15333;50.010;20.020;2023-03-20T03:31:53;40.97;;;23.38;;
28007;SDS011;15333;50.010;20.020;2023-03-20T03:34:56;42.58;;;23.30;;
28007;SDS011;15333;50.010;20.020;2023-03-20T03:41:27;39.63;;;22.80;;
28007;SDS011;15333;50.010;20.020;2023-03-20T03:44:36;32.80;;;19.23;;
28007;SDS011;15333;50.010;20.020;2023-03-20T03:51:10;40.47;;;22.30;;
28007;SDS011;15333;50.010;20.020;2023-03-20T03:55:12;49.40;;;26.85;;
28007;SDS011;15333;50.010;20.020;2023-03-20T03:58:05;47.78;;;25.45;;
28007;SDS011;15333;50.010;20.020;2023-03-20T04:01:12;46.30;;;27.17;;
28007;SDS011;15333;50.010;20.020;2023-03-20T04:04:15;53.08;;;28.02;;
28007;SDS011;15333;50.010;20.020;2023-03-20T04:07:18;63.20;;;25.92;;
28007;SDS011;15333;50.010;20.020;2023-03-20T04:10:20;51.15;;;28.00;;
28007;SDS011;15333;50.010;20.020;2023-03-20T04:13:22;49.28;;;24.10;;
28007;SDS011;15333;50.010;20.020;2023-03-20T04:16:23;44.78;;;23.13;;
28007;SDS011;15333;50.010;20.020;2023-03-20T04:19:25;46.13;;;23.70;;
28007;SDS011;15333;50.010;20.020;2023-03-20T04:22:26;44.22;;;24.27;;
28007;SDS011;15333;50.010;20.020;2023-03-20T04:25:33;36.92;;;19.80;;
28007;SDS011;15333;50.010;20.020;2023-03-20T04:28:34;39.30;;;21.05;;
28007;SDS011;15333;50.010;20.020;2023-03-20T04:31:50;32.53;;;17.67;;
28007;SDS011;15333;50.010;20.020;2023-03-20T04:35:03;39.63;;;21.58;;
28007;SDS011;15333;50.010;20.020;2023-03-20T04:38:20;38.90;;;20.67;;
28007;SDS011;15333;50.010;20.020;2023-03-20T04:41:22;30.15;;;17.27;;
28007;SDS011;15333;50.010;20.020;2023-03-20T04:44:28;41.63;;;21.58;;
28007;SDS011;15333;50.010;20.020;2023-03-20T04:47:28;35.55;;;18.17;;
28007;SDS011;15333;50.010;20.020;2023-03-20T04:50:30;37.15;;;18.65;;
28007;SDS011;15333;50.010;20.020;2023-03-20T04:53:32;32.75;;;17.60;;
28007;SDS011;15333;50.010;20.020;2023-03-20T04:56:33;32.45;;;17.88;;
28007;SDS011;15333;50.010;20.020;2023-03-20T04:59:49;36.97;;;17.88;;
28007;SDS011;15333;50.010;20.020;2023-03-20T05:02:51;23.02;;;13.52;;
28007;SDS011;15333;50.010;20.020;2023-03-20T05:05:52;29.70;;;17.00;;
28007;SDS011;15333;50.010;20.020;2023-03-20T05:08:53;31.40;;;17.92;;
28007;SDS011;15333;50.010;20.020;2023-03-20T05:11:54;32.30;;;17.45;;
28007;SDS011;15333;50.010;20.020;2023-03-20T05:15:32;32.25;;;16.77;;
28007;SDS011;15333;50.010;20.020;2023-03-20T05:18:51;34.45;;;17.45;;
28007;SDS011;15333;50.010;20.020;2023-03-20T05:22:18;26.63;;;16.02;;
28007;SDS011;15333;50.010;20.020;2023-03-20T05:25:34;31.10;;;17.48;;
28007;SDS011;15333;50.010;20.020;2023-03-20T05:28:58;32.70;;;17.55;;
28007;SDS011;15333;50.010;20.020;2023-03-20T05:32:08;32.77;;;18.27;;
28007;SDS011;15333;50.010;20.020;2023-03-20T05:35:20;39.88;;;18.40;;
28007;SDS011;15333;50.010;20.020;2023-03-20T05:38:26;37.33;;;19.75;;
28007;SDS011;15333;50.010;20.020;2023-03-20T05:41:53;37.35;;;19.45;;
28007;SDS011;15333;50.010;20.020;2023-03-20T05:45:06;34.47;;;18.45;;
28007;SDS011;15333;50.010;20.020;2023-03-20T05:48:28;36.55;;;19.15;;
28007;SDS011;15333;50.010;20.020;2023-03-20T05:51:49;41.13;;;20.23;;
28007;SDS011;15333;50.010;20.020;2023-03-20T05:55:18;36.10;;;19.40;;
28007;SDS011;15333;50.010;20.020;2023-03-20T05:58:41;38.92;;;20.73;;
28007;SDS011;15333;50.010;20.020;2023-03-20T06:02:15;34.85;;;18.02;;
28007;SDS011;15333;50.010;20.020;2023-03-20T06:08:29;36.15;;;18.33;;
28007;SDS011;15333;50.010;20.020;2023-03-20T06:11:32;31.20;;;17.60;;
28007;SDS011;15333;50.010;20.020;2023-03-20T06:14:33;34.00;;;17.73;;
28007;SDS011;15333;50.010;20.020;2023-03-20T06:17:39;32.65;;;18.38;;
28007;SDS011;15333;50.010;20.020;2023-03-20T06:20:40;32.45;;;17.73;;
28007;SDS011;15333;50.010;20.020;2023-03-20T06:23:42;33.40;;;17.60;;
28007;SDS011;15333;50.010;20.020;2023-03-20T06:26:44;29.73;;;18.02;;
28007;SDS011;15333;50.010;20.020;2023-03-20T06:29:47;37.60;;;19.17;;
28007;SDS011;15333;50.010;20.020;2023-03-20T06:32:56;40.45;;;21.88;;
28007;SDS011;15333;50.010;20.020;2023-03-20T06:36:05;44.60;;;23.98;;
28007;SDS011;15333;50.010;20.020;2023-03-20T06:39:07;46.80;;;24.15;;
28007;SDS011;15333;50.010;20.020;2023-03-20T06:42:08;47.50;;;25.33;;
28007;SDS011;15333;50.010;20.020;2023-03-20T06:45:11;48.47;;;26.02;;
28007;SDS011;15333;50.010;20.020;2023-03-20T06:48:28;46.75;;;25.25;;
28007;SDS011;15333;50.010;20.020;2023-03-20T06:51:30;53.55;;;27.58;;
28007;SDS011;15333;50.010;20.020;2023-03-20T06:54:32;50.20;;;26.75;;
28007;SDS011;15333;50.010;20.020;2023-03-20T06:57:33;49.22;;;26.27;;
28007;SDS011;15333;50.010;20.020;2023-03-20T07:00:34;54.20;;;26.95;;
28007;SDS011;15333;50.010;20.020;2023-03-20T07:03:39;53.75;;;27.15;;
28007;SDS011;15333;50.010;20.020;2023-03-20T07:06:42;48.08;;;24.95;;
28007;SDS011;15333;50.010;20.020;2023-03-20T07:09:44;46.35;;;24.90;;
28007;SDS011;15333;50.010;20.020;2023-03-20T07:12:45;46.25;;;23.88;;
28007;SDS011;15333;50.010;20.020;2023-03-20T07:15:47;40.25;;;22.05;;
28007;SDS011;15333;50.010;20.020;2023-03-20T07:18:53;39.00;;;21.33;;
28007;SDS011;15333;50.010;20.020;2023-03-20T07:21:56;36.83;;;20.15;;
28007;SDS011;15333;50.010;20.020;2023-03-20T07:25:03;36.88;;;19.52;;
28007;SDS011;15333;50.010;20.020;2023-03-20T07:28:06;35.00;;;19.23;;
28007;SDS011;15333;50.010;20.020;2023-03-20T07:31:11;32.10;;;18.80;;
28007;SDS011;15333;50.010;20.020;2023-03-20T07:34:21;35.08;;;18.88;;
28007;SDS011;15333;50.010;20.020;2023-03-20T07:37:23;36.95;;;19.60;;
28007;SDS011;15333;50.010;20.020;2023-03-20T07:40:35;36.83;;;20.05;;
28007;SDS011;15333;50.010;20.020;2023-03-20T07:43:41;39.28;;;19.65;;
28007;SDS011;15333;50.010;20.020;2023-03-20T07:47:00;34.97;;;21.30;;
28007;SDS011;15333;50.010;20.020;2023-03-20T07:50:01;37.33;;;19.80;;
28007;SDS011;15333;50.010;20.020;2023-03-20T07:53:04;41.13;;;20.35;;
28007;SDS011;15333;50.010;20.020;2023-03-20T07:56:05;38.03;;;20.83;;
28007;SDS011;15333;50.010;20.020;2023-03-20T07:59:07;41.65;;;21.98;;
28007;SDS011;15333;50.010;20.020;2023-03-20T08:02:11;36.58;;;20.63;;
28007;SDS011;15333;50.010;20.020;2023-03-20T08:05:14;46.95;;;22.77;;
28007;SDS011;15333;50.010;20.020;2023-03-20T08:08:15;36.42;;;21.17;;
28007;SDS011;15333;50.010;20.020;2023-03-20T08:11:17;37.88;;;22.55;;
28007;SDS011;15333;50.010;20.020;2023-03-20T08:14:19;39.33;;;21.92;;
28007;SDS011;15333;50.010;20.020;2023-03-20T08:17:20;36.60;;;21.55;;
28007;SDS011;15333;50.010;20.020;2023-03-20T08:20:21;36.78;;;20.95;;
28007;SDS011;15333;50.010;20.020;2023-03-20T08:23:22;42.85;;;24.10;;
28007;SDS011;15333;50.010;20.020;2023-03-20T08:26:22;41.83;;;24.55;;
28007;SDS011;15333;50.010;20.020;2023-03-20T08:29:24;41.70;;;23.40;;
28007;SDS011;15333;50.010;20.020;2023-03-20T08:32:25;40.75;;;22.10;;
28007;SDS011;15333;50.010;20.020;2023-03-20T08:35:26;35.17;;;21.83;;
28007;SDS011;15333;50.010;20.020;2023-03-20T08:38:27;40.55;;;23.60;;
28007;SDS011;15333;50.010;20.020;2023-03-20T08:41:28;39.78;;;23.45;;
28007;SDS011;15333;50.010;20.020;2023-03-20T08:44:29;39.00;;;23.65;;
28007;SDS011;15333;50.010;20.020;2023-03-20T08:47:30;40.65;;;23.27;;
28007;SDS011;15333;50.010;20.020;2023-03-20T08:50:31;37.50;;;21.58;;
28007;SDS011;15333;50.010;20.020;2023-03-20T08:53:32;44.08;;;23.83;;
28007;SDS011;15333;50.010;20.020;2023-03-20T08:56:33;40.45;;;23.83;;
28007;SDS011;15333;50.010;20.020;2023-03-20T08:59:34;42.47;;;26.08;;
28007;SDS011;15333;50.010;20.020;2023-03-20T09:02:35;44.05;;;26.67;;
28007;SDS011;15333;50.010;20.020;2023-03-20T09:05:36;49.40;;;25.75;;
28007;SDS011;15333;50.010;20.020;2023-03-20T09:08:37;41.13;;;24.60;;
28007;SDS011;15333;50.010;20.020;2023-03-20T09:11:38;41.92;;;25.80;;
28007;SDS011;15333;50.010;20.020;2023-03-20T09:14:39;42.72;;;25.67;;
28007;SDS011;15333;50.010;20.020;2023-03-20T09:17:41;44.13;;;26.23;;
28007;SDS011;15333;50.010;20.020;2023-03-20T09:20:42;43.97;;;25.73;;
28007;SDS011;15333;50.010;20.020;2023-03-20T09:23:43;42.65;;;26.42;;
28007;SDS011;15333;50.010;20.020;2023-03-20T09:26:44;43.33;;;25.20;;
28007;SDS011;15333;50.010;20.020;2023-03-20T09:29:45;44.90;;;26.50;;
28007;SDS011;15333;50.010;20.020;2023-03-20T09:32:45;41.42;;;24.80;;
28007;SDS011;15333;50.010;20.020;2023-03-20T09:35:46;46.00;;;27.02;;
28007;SDS011;15333;50.010;20.020;2023-03-20T09:38:47;45.55;;;26.10;;
28007;SDS011;15333;50.010;20.020;2023-03-20T09:41:48;43.78;;;24.60;;
28007;SDS011;15333;50.010;20.020;2023-03-20T09:58:24;36.72;;;24.02;;
28007;SDS011;15333;50.010;20.020;2023-03-20T10:02:10;39.08;;;25.25;;
28007;SDS011;15333;50.010;20.020;2023-03-20T10:04:56;36.83;;;23.80;;
28007;SDS011;15333;50.010;20.020;2023-03-20T10:08:02;40.75;;;24.08;;
28007;SDS011;15333;50.010;20.020;2023-03-20T10:11:09;40.35;;;22.80;;
28007;SDS011;15333;50.010;20.020;2023-03-20T10:14:38;36.13;;;23.52;;
28007;SDS011;15333;50.010;20.020;2023-03-20T10:18:06;35.65;;;22.23;;
28007;SDS011;15333;50.010;20.020;2023-03-20T10:21:48;40.88;;;24.35;;
28007;SDS011;15333;50.010;20.020;2023-03-20T10:24:58;36.75;;;23.08;;
28007;SDS011;15333;50.010;20.020;2023-03-20T10:28:19;33.92;;;22.20;;
28007;SDS011;15333;50.010;20.020;2023-03-20T10:35:33;31.88;;;21.02;;
28007;SDS011;15333;50.010;20.020;2023-03-20T10:38:35;30.38;;;20.02;;
28007;SDS011;15333;50.010;20.020;2023-03-20T10:41:57;33.45;;;20.90;;
28007;SDS011;15333;50.010;20.020;2023-03-20T10:45:07;30.73;;;20.13;;
28007;SDS011;15333;50.010;20.020;2023-03-20T10:48:32;34.00;;;20.48;;
28007;SDS011;15333;50.010;20.020;2023-03-20T10:51:47;30.25;;;19.02;;
28007;SDS011;15333;50.010;20.020;2023-03-20T10:54:56;31.60;;;21.23;;
28007;SDS011;15333;50.010;20.020;2023-03-20T10:58:02;32.47;;;21.45;;
28007;SDS011;15333;50.010;20.020;2023-03-20T11:01:14;36.85;;;22.48;;
28007;SDS011;15333;50.010;20.020;2023-03-20T11:04:15;30.60;;;21.33;;
28007;SDS011;15333;50.010;20.020;2023-03-20T11:07:26;35.30;;;22.27;;
28007;SDS011;15333;50.010;20.020;2023-03-20T11:10:32;34.75;;;23.05;;
28007;SDS011;15333;50.010;20.020;2023-03-20T11:13:40;33.58;;;21.25;;
28007;SDS011;15333;50.010;20.020;2023-03-20T11:16:42;31.98;;;20.65;;
28007;SDS011;15333;50.010;20.020;2023-03-20T11:19:48;35.00;;;22.23;;
28007;SDS011;15333;50.010;20.020;2023-03-20T11:22:55;35.05;;;23.33;;
28007;SDS011;15333;50.010;20.020;2023-03-20T11:26:03;34.85;;;22.40;;
28007;SDS011;15333;50.010;20.020;2023-03-20T11:29:18;37.60;;;23.40;;
28007;SDS011;15333;50.010;20.020;2023-03-20T11:32:35;35.03;;;22.75;;
28007;SDS011;15333;50.010;20.020;2023-03-20T11:35:43;34.17;;;22.52;;
28007;SDS011;15333;50.010;20.020;2023-03-20T11:38:46;37.55;;;21.90;;
28007;SDS011;15333;50.010;20.020;2023-03-20T11:41:50;35.75;;;21.92;;
28007;SDS011;15333;50.010;20.020;2023-03-20T11:44:57;36.13;;;22.73;;
28007;SDS011;15333;50.010;20.020;2023-03-20T11:48:00;35.65;;;23.20;;
28007;SDS011;15333;50.010;20.020;2023-03-20T11:51:03;34.83;;;23.70;;
28007;SDS011;15333;50.010;20.020;2023-03-20T11:54:06;38.80;;;25.08;;
28007;SDS011;15333;50.010;20.020;2023-03-20T12:00:38;38.80;;;25.17;;
28007;SDS011;15333;50.010;20.020;2023-03-20T12:10:13;37.13;;;23.88;;
28007;SDS011;15333;50.010;20.020;2023-03-20T12:13:19;37.85;;;23.23;;
28007;SDS011;15333;50.010;20.020;2023-03-20T12:16:25;30.67;;;20.63;;
28007;SDS011;15333;50.010;20.020;2023-03-20T12:19:29;29.02;;;19.70;;
28007;SDS011;15333;50.010;20.020;2023-03-20T12:22:37;31.90;;;19.75;;
28007;SDS011;15333;50.010;20.020;2023-03-20T12:25:58;31.80;;;21.45;;
28007;SDS011;15333;50.010;20.020;2023-03-20T12:29:09;33.30;;;20.42;;
28007;SDS011;15333;50.010;20.020;2023-03-20T12:35:41;31.38;;;20.98;;
28007;SDS011;15333;50.010;20.020;2023-03-20T12:38:48;32.63;;;21.20;;
28007;SDS011;15333;50.010;20.020;2023-03-20T12:42:02;34.60;;;21.13;;
28007;SDS011;15333;50.010;20.020;2023-03-20T12:45:14;30.50;;;18.08;;
28007;SDS011;15333;50.010;20.020;2023-03-20T13:01:19;23.63;;;16.80;;
28007;SDS011;15333;50.010;20.020;2023-03-20T13:04:39;24.80;;;16.80;;
28007;SDS011;15333;50.010;20.020;2023-03-20T13:07:47;27.83;;;17.33;;
28007;SDS011;15333;50.010;20.020;2023-03-20T13:11:07;27.67;;;16.85;;
28007;SDS011;15333;50.010;20.020;2023-03-20T13:20:53;26.00;;;16.15;;
28007;SDS011;15333;50.010;20.020;2023-03-20T13:23:59;27.02;;;16.55;;
28007;SDS011;15333;50.010;20.020;2023-03-20T13:27:10;29.60;;;16.73;;
28007;SDS011;15333;50.010;20.020;2023-03-20T13:40:10;31.48;;;18.90;;
28007;SDS011;15333;50.010;20.020;2023-03-20T13:46:42;31.35;;;20.02;;
28007;SDS011;15333;50.010;20.020;2023-03-20T14:09:30;25.27;;;17.63;;
28007;SDS011;15333;50.010;20.020;2023-03-20T14:12:33;33.67;;;20.50;;
28007;SDS011;15333;50.010;20.020;2023-03-20T14:15:35;31.50;;;18.98;;
28007;SDS011;15333;50.010;20.020;2023-03-20T14:18:38;31.55;;;19.83;;
28007;SDS011;15333;50.010;20.020;2023-03-20T14:21:43;28.60;;;17.83;;
28007;SDS011;15333;50.010;20.020;2023-03-20T14:24:50;25.05;;;15.00;;
28007;SDS011;15333;50.010;20.020;2023-03-20T14:28:40;24.48;;;15.32;;
28007;SDS011;15333;50.010;20.020;2023-03-20T14:31:46;21.73;;;14.45;;
28007;SDS011;15333;50.010;20.020;2023-03-20T14:38:20;25.42;;;16.45;;
28007;SDS011;15333;50.010;20.020;2023-03-20T14:57:30;28.30;;;18.70;;
28007;SDS011;15333;50.010;20.020;2023-03-20T15:00:33;32.05;;;19.88;;
28007;SDS011;15333;50.010;20.020;2023-03-20T15:03:46;34.40;;;22.08;;
28007;SDS011;15333;50.010;20.020;2023-03-20T15:07:33;37.70;;;23.77;;
28007;SDS011;15333;50.010;20.020;2023-03-20T15:10:14;38.45;;;24.77;;
28007;SDS011;15333;50.010;20.020;2023-03-20T15:13:15;44.58;;;26.02;;
28007;SDS011;15333;50.010;20.020;2023-03-20T15:16:24;41.38;;;27.45;;
28007;SDS011;15333;50.010;20.020;2023-03-20T15:19:29;44.60;;;28.65;;
28007;SDS011;15333;50.010;20.020;2023-03-20T15:22:31;42.75;;;26.73;;
28007;SDS011;15333;50.010;20.020;2023-03-20T15:25:37;51.40;;;28.63;;
28007;SDS011;15333;50.010;20.020;2023-03-20T15:28:40;41.80;;;26.50;;
28007;SDS011;15333;50.010;20.020;2023-03-20T15:31:42;46.20;;;27.02;;
28007;SDS011;15333;50.010;20.020;2023-03-20T15:34:44;43.17;;;26.60;;
28007;SDS011;15333;50.010;20.020;2023-03-20T15:37:47;44.80;;;27.58;;
28007;SDS011;15333;50.010;20.020;2023-03-20T15:40:50;44.17;;;26.17;;
28007;SDS011;15333;50.010;20.020;2023-03-20T15:43:51;41.22;;;26.55;;
28007;SDS011;15333;50.010;20.020;2023-03-20T15:50:12;38.92;;;26.15;;
28007;SDS011;15333;50.010;20.020;2023-03-20T15:53:32;43.55;;;26.80;;
28007;SDS011;15333;50.010;20.020;2023-03-20T15:56:37;45.55;;;28.85;;
28007;SDS011;15333;50.010;20.020;2023-03-20T15:59:42;48.92;;;29.50;;
28007;SDS011;15333;50.010;20.020;2023-03-20T16:02:44;53.67;;;33.60;;
28007;SDS011;15333;50.010;20.020;2023-03-20T16:05:48;48.03;;;34.53;;
28007;SDS011;15333;50.010;20.020;2023-03-20T16:09:00;49.70;;;35.88;;
28007;SDS011;15333;50.010;20.020;2023-03-20T16:12:06;54.88;;;35.15;;
28007;SDS011;15333;50.010;20.020;2023-03-20T16:15:16;48.17;;;32.97;;
28007;SDS011;15333;50.010;20.020;2023-03-20T16:18:18;49.55;;;33.05;;
28007;SDS011;15333;50.010;20.020;2023-03-20T16:21:21;45.45;;;32.35;;
28007;SDS011;15333;50.010;20.020;2023-03-20T16:24:27;42.22;;;30.83;;
28007;SDS011;15333;50.010;20.020;2023-03-20T16:27:38;48.58;;;32.95;;
28007;SDS011;15333;50.010;20.020;2023-03-20T16:30:41;48.22;;;32.63;;
28007;SDS011;15333;50.010;20.020;2023-03-20T16:33:42;52.63;;;32.90;;
28007;SDS011;15333;50.010;20.020;2023-03-20T16:36:48;49.15;;;33.17;;
28007;SDS011;15333;50.010;20.020;2023-03-20T16:43:18;46.72;;;31.85;;
28007;SDS011;15333;50.010;20.020;2023-03-20T16:46:24;46.67;;;32.38;;
28007;SDS011;15333;50.010;20.020;2023-03-20T16:52:35;42.90;;;30.45;;
28007;SDS011;15333;50.010;20.020;2023-03-20T16:55:43;44.70;;;31.42;;
28007;SDS011;15333;50.010;20.020;2023-03-20T16:58:45;44.00;;;30.67;;
28007;SDS011;15333;50.010;20.020;2023-03-20T17:01:47;47.45;;;31.60;;
28007;SDS011;15333;50.010;20.020;2023-03-20T17:04:53;43.33;;;31.02;;
28007;SDS011;15333;50.010;20.020;2023-03-20T17:07:58;47.70;;;32.08;;
28007;SDS011;15333;50.010;20.020;2023-03-20T17:11:09;49.45;;;33.25;;
28007;SDS011;15333;50.010;20.020;2023-03-20T17:14:13;45.88;;;31.30;;
28007;SDS011;15333;50.010;20.020;2023-03-20T17:17:15;48.85;;;32.63;;
28007;SDS011;15333;50.010;20.020;2023-03-20T17:20:20;51.78;;;33.15;;
28007;SDS011;15333;50.010;20.020;2023-03-20T17:23:24;47.13;;;32.00;;
28007;SDS011;15333;50.010;20.020;2023-03-20T17:26:25;49.55;;;33.65;;
28007;SDS011;15333;50.010;20.020;2023-03-20T17:29:25;49.13;;;33.00;;
28007;SDS011;15333;50.010;20.020;2023-03-20T17:32:26;50.60;;;33.05;;
28007;SDS011;15333;50.010;20.020;2023-03-20T17:35:27;45.63;;;32.22;;
28007;SDS011;15333;50.010;20.020;2023-03-20T17:38:28;51.45;;;34.50;;
28007;SDS011;15333;50.010;20.020;2023-03-20T17:41:29;51.90;;;34.60;;
28007;SDS011;15333;50.010;20.020;2023-03-20T17:44:30;54.63;;;35.78;;
28007;SDS011;15333;50.010;20.020;2023-03-20T17:47:31;50.75;;;36.17;;
28007;SDS011;15333;50.010;20.020;2023-03-20T17:50:32;51.67;;;35.78;;
28007;SDS011;15333;50.010;20.020;2023-03-20T17:53:33;52.22;;;37.15;;
28007;SDS011;15333;50.010;20.020;2023-03-20T17:56:34;54.30;;;37.40;;
28007;SDS011;15333;50.010;20.020;2023-03-20T17:59:35;58.40;;;39.25;;
28007;SDS011;15333;50.010;20.020;2023-03-20T18:02:36;55.05;;;38.55;;
28007;SDS011;15333;50.010;20.020;2023-03-20T18:05:37;69.07;;;41.75;;
28007;SDS011;15333;50.010;20.020;2023-03-20T18:08:39;68.65;;;42.95;;
28007;SDS011;15333;50.010;20.020;2023-03-20T18:11:39;67.45;;;45.78;;
28007;SDS011;15333;50.010;20.020;2023-03-20T18:14:41;80.50;;;48.42;;
28007;SDS011;15333;50.010;20.020;2023-03-20T18:17:43;70.90;;;46.88;;
28007;SDS011;15333;50.010;20.020;2023-03-20T18:20:44;72.43;;;45.97;;
28007;SDS011;15333;50.010;20.020;2023-03-20T18:23:46;68.68;;;44.35;;
28007;SDS011;15333;50.010;20.020;2023-03-20T18:26:47;72.25;;;46.78;;
28007;SDS011;15333;50.010;20.020;2023-03-20T18:29:48;65.43;;;44.22;;
28007;SDS011;15333;50.010;20.020;2023-03-20T18:32:50;62.38;;;42.05;;
28007;SDS011;15333;50.010;20.020;2023-03-20T18:35:51;69.57;;;43.95;;
28007;SDS011;15333;50.010;20.020;2023-03-20T18:38:52;69.65;;;42.92;;
28007;SDS011;15333;50.010;20.020;2023-03-20T18:41:53;65.28;;;40.22;;
28007;SDS011;15333;50.010;20.020;2023-03-20T18:44:55;69.72;;;41.70;;
28007;SDS011;15333;50.010;20.020;2023-03-20T18:47:56;61.63;;;40.08;;
28007;SDS011;15333;50.010;20.020;2023-03-20T18:50:57;61.95;;;39.25;;
28007;SDS011;15333;50.010;20.020;2023-03-20T18:54:01;67.32;;;38.40;;
28007;SDS011;15333;50.010;20.020;2023-03-20T18:57:02;62.58;;;39.47;;
28007;SDS011;15333;50.010;20.020;2023-03-20T19:00:03;63.97;;;39.20;;
28007;SDS011;15333;50.010;20.020;2023-03-20T19:03:11;62.35;;;39.72;;
28007;SDS011;15333;50.010;20.020;2023-03-20T19:06:20;63.55;;;40.92;;
28007;SDS011;15333;50.010;20.020;2023-03-20T19:09:22;61.92;;;41.35;;
28007;SDS011;15333;50.010;20.020;2023-03-20T19:12:23;68.90;;;43.83;;
28007;SDS011;15333;50.010;20.020;2023-03-20T19:15:25;69.93;;;45.45;;
28007;SDS011;15333;50.010;20.020;2023-03-20T19:18:26;64.88;;;44.22;;
28007;SDS011;15333;50.010;20.020;2023-03-20T19:21:28;69.75;;;44.42;;
28007;SDS011;15333;50.010;20.020;2023-03-20T19:24:31;77.10;;;45.88;;
28007;SDS011;15333;50.010;20.020;2023-03-20T19:27:32;77.35;;;47.15;;
28007;SDS011;15333;50.010;20.020;2023-03-20T19:30:37;77.38;;;48.53;;
28007;SDS011;15333;50.010;20.020;2023-03-20T19:33:39;74.10;;;47.72;;
28007;SDS011;15333;50.010;20.020;2023-03-20T19:36:40;79.35;;;51.83;;
28007;SDS011;15333;50.010;20.020;2023-03-20T19:39:41;79.90;;;51.00;;
28007;SDS011;15333;50.010;20.020;2023-03-20T19:42:42;86.90;;;54.58;;
28007;SDS011;15333;50.010;20.020;2023-03-20T19:45:43;81.40;;;51.90;;
28007;SDS011;15333;50.010;20.020;2023-03-20T19:48:45;83.43;;;53.83;;
28007;SDS011;15333;50.010;20.020;2023-03-20T19:51:47;88.55;;;56.45;;
28007;SDS011;15333;50.010;20.020;2023-03-20T19:54:48;94.18;;;57.42;;
28007;SDS011;15333;50.010;20.020;2023-03-20T19:57:49;99.70;;;64.00;;
28007;SDS011;15333;50.010;20.020;2023-03-20T20:00:51;105.28;;;66.97;;
28007;SDS011;15333;50.010;20.020;2023-03-20T20:03:52;110.03;;;67.47;;
28007;SDS011;15333;50.010;20.020;2023-03-20T20:06:54;120.05;;;68.70;;
28007;SDS011;15333;50.010;20.020;2023-03-20T20:09:55;116.70;;;71.85;;
28007;SDS011;15333;50.010;20.020;2023-03-20T20:12:56;114.47;;;71.18;;
28007;SDS011;15333;50.010;20.020;2023-03-20T20:15:57;119.57;;;74.30;;
28007;SDS011;15333;50.010;20.020;2023-03-20T20:18:58;124.82;;;76.10;;
28007;SDS011;15333;50.010;20.020;2023-03-20T20:21:59;136.45;;;79.95;;
28007;SDS011;15333;50.010;20.020;2023-03-20T20:25:00;137.55;;;84.70;;